Disclaimer

Please do not use the information listed here in-flight or in-navigation, as they are not provided to us by the airports but are provided by volunteers, so they might be outdated.

Search


Regions


Airport information page

Radio informations:
Tower (TWR) - 130.1 MHz

Airport informations:
Latitude: 56° 41' 28.06" N
Longitude: 012° 49' 12.76" E
Elevation: 101 feet - 31 meters
Operating hours: Remarks
Operating agency: Civil government, landing fees and diplomatic clearance may be required
Timezone: UTC+1(+2DT) - Last Sunday in March to last Sunday in October
Fuel: Jet A1, without icing nhibitor.

80/87 octane gasoline, leaded, MIL-L-5572F (RED)

100/130 MIL Spec, low lead, aviation gasoline (BLUE)

Unknown fuel type or whether there is any fuel.

Runway information:
01/19 - 7419 x 131 feet< - >2261 x 40 meters

Recent METARs:
ESMT 160550Z 13008KT CAVOK 06/04 Q1035
ESMT 160620Z 13009KT CAVOK 06/04 Q1035
ESMT 160650Z 13009KT CAVOK 06/04 Q1035

Airport on the map: